Maxeys, GA (30671)

10:06 AM EDT on July 25, 2016 (GMT -0400)
Greensboro | | Change Station

Elev 676 ft 33.60 °N, 83.14 °W | Updated 11 minutes ago

Clear
Clear
88 °F
Feels Like 98 °F
N
4
Wind Variable Wind from West

Today
High -- | Low -- °F
--% Chance of Precip.
Yesterday
High -- | Low -- °F
Precip. -- in
Pressure 30.07 in
Visibility 10.0 miles
Clouds Clear
Heat Index 98 °F
Dew Point 75 °F
Humidity 66%
Rainfall 0.00 in
Snow Depth Not available.
6:39 AM 8:37 PM
Waning Gibbous, 65% visible
METAR K3J7 251355Z AUTO 26003KT 10SM CLR 31/24 A3007 RMK AO2
Pressure 30.07 in
Visibility 10.0 miles
Clouds Clear
Heat Index 98 °F
Dew Point 75 °F
Humidity 66%
Rainfall 0.00 in
Snow Depth Not available.
6:39 AM 8:37 PM
Waning Gibbous, 65% visible
METAR K3J7 251355Z AUTO 26003KT 10SM CLR 31/24 A3007 RMK AO2

10-Day Weather Forecast

Almanac

Astronomy

Jul. 25, 2016 Rise Set
Actual Time
Civil Twilight
Nautical Twilight
Astronomical Twilight
Moon
Length of Visible Light
Length of Day
Tomorrow will be .
, % of the Moon is Illuminated

Today's Extremes

State Highs State Lows

Community

WunderPhotos

Upload Photos

1,927,300 photos uploaded!

WunderBlog® & News

Nearby

Air Quality

  Air Quality AQ Index Pollutant
Not available.

Snow Depth

Station Depth Elevation

Earthquake Activity

City Distance Mag. Time & Date
Minimum magnitude displayed is 2.5.

Coastal Water Temperatures

Place Temperature

Stations

Nearby Weather Stations

Station Location Temp. Windchill Dew Point Humidity Wind Precip. Elev Updated Type
                   

Watches & Warnings

There are currently no watches in effect.